Beatty, Nevada
Current Conditions -  °F | °C
As of 7:52 AM on Saturday 22 Nov 2014 (Local Time) from KDRA Reporting Station
Clear Clear  
Wind Chill: 45°   Ceiling: Unl
Heat Index: 47°   Visibility: 10mi
Dew Point: 27°   Wind: 5mph
Humidity: 46%   Direction: 340°NNW
Pressure: 30.07"   Gusts: NA
Location:  36.91°N, 116.76°W
Report Text: KDRA 221552Z AUTO 34004KT 10SM CLR 08/M03 A3007 RMK AO2 SLP170 T00831028 $
Loading
Personal Weather Stations






























Interactive Weather Map New forecast layout! Learn more

10-Day Weather Forecast

Advertisements
Track Severe Weather on mobile